Jackson, Tennessee
Current Conditions -  °F | °C
As of 10:53 AM on Friday 31 Oct 2014 (Local Time) from KMKL Reporting Station
Overcast Overcast  
Wind Chill: 54°   Ceiling: 1500
Heat Index: 54°   Visibility: 10mi
Dew Point: 48°   Wind: 15mph
Humidity: 80%   Direction: 360°N
Pressure: 30.09"   Gusts: NA
Location:  35.61°N, 88.82°W
Report Text: KMKL 311553Z 36013KT 10SM BKN015 OVC020 12/09 A3009 RMK AO2 SLP190 P0001 T01220089
Loading
Personal Weather Stations






























Interactive Weather Map
Tropical Storm Tracking
New forecast layout! Learn more

10-Day Weather Forecast

Advertisements
Track Severe Weather on mobile